Terminal Aerodrome Forecast
Issued by NWS Shreveport, LA

Home | Current Version | Previous Version | Text Only | Print | Product List | Glossary On
Versions: 1 2 3 4 5 6 7 8 9 10 11 12 13 14 15 16 17 18 19 20 21 22
350
FTUS44 KSHV 171723
TAFTXK
TAF
KTXK 171723Z 1718/1818 31004KT P6SM VCSH BKN080
     FM180000 01003KT P6SM VCSH OVC060
     FM180300 01003KT P6SM VCSH OVC030
     FM180600 01004KT 5SM BR VCSH OVC010
     FM180800 04004KT 4SM -RA BR OVC003
     FM181400 08006KT 4SM -RA BR OVC003=

USA.gov is the U.S. government's official web portal to all federal, state and local government web resources and services.